Ana Sayfa
METAR-TAF:

METAR-TAF

Havaalanları :

Kudat, Malezya

Enlem: 06-55N, Boylam: 116-50E, yükseklik: 3 m

Güncel hava durumu gözlemi

Rapor saat 22:00 UTC de 1 saat ve 12 dakika önce yapıldı.
Rüzgar değişken yönden 1 kt
Sıcaklık 24°C
Nem 94%
Basınç 1010 hPa
Görüş mesafesi 10 km veya daha fazla
1400 ft yükseklikte az bulutlu
28000 ft yükseklikte parçalı çok bulutlu

METAR: WBKT 172200Z VRB01KT 9999 FEW014 BKN280 24/23 Q1010

Saat: 07:12 (23:12 UTC)


TAF: eksik

4.000'den fazla havaalanı için hava durumu gözlemleri ve tahminleri (METAR ve TAF raporları).

Kullanılabilir istasyonlar harita üzerinde sarı ve kırmızı noktalarla gösterilir.

İstasyonun adını görmek için fareyi noktanın üzerinde gezdirin.

Sonrasında hava gözlem ve tahminlerini görmek için tıklayın.

Haritayı değiştirmek için: yaklaştırmak için siyah artı işaretli yeşil düğmeye ve uzaklaştırmak için de eksi işaretli düğmeye hızla tıklayın; bitişik haritalar için yeşil okları kullanın.


METAR-TAF: